Time;durP1;ratioP1;P1;durP2;ratioP2;P2;SDS_P1;SDS_P2;PMS_P1;PMS_P2;Temp;Humidity;BMP_temperature;BMP_pressure;BME280_temperature;BME280_humidity;BME280_pressure;Samples;Min_cycle;Max_cycle;Signal;HPM_P1;HPM_P2
2021/10/14 00:01:34;;;;;;;9.63;8.73;;;9.20;99.90;;;;;;5032425;28;20172;-63
2021/10/14 00:04:00;;;;;;;9.90;8.40;;;9.20;99.90;;;;;;5033464;28;20220;-63
2021/10/14 00:06:25;;;;;;;9.00;8.10;;;9.20;99.90;;;;;;5033351;28;20590;-63
2021/10/14 00:08:51;;;;;;;11.93;8.60;;;9.20;99.90;;;;;;5033111;28;20573;-63
2021/10/14 00:11:16;;;;;;;17.90;8.30;;;9.20;99.90;;;;;;5033391;28;20658;-63
2021/10/14 00:13:42;;;;;;;9.77;8.10;;;9.20;99.90;;;;;;5033413;28;20586;-63
2021/10/14 00:16:07;;;;;;;12.10;8.40;;;9.20;99.90;;;;;;5033380;28;20184;-63
2021/10/14 00:18:33;;;;;;;8.47;7.33;;;9.20;99.90;;;;;;5032939;28;20218;-63
2021/10/14 00:20:59;;;;;;;9.63;7.73;;;9.10;99.90;;;;;;5030980;28;20242;-63
2021/10/14 00:23:25;;;;;;;9.03;7.93;;;9.10;99.90;;;;;;5033116;28;20172;-63
2021/10/14 00:25:50;;;;;;;8.87;7.30;;;9.20;99.90;;;;;;5033188;28;20191;-63
2021/10/14 00:28:16;;;;;;;10.50;8.70;;;9.20;99.90;;;;;;5032811;28;20498;-63
2021/10/14 00:30:42;;;;;;;9.03;7.30;;;9.20;99.90;;;;;;5033035;28;20203;-63
2021/10/14 00:33:07;;;;;;;9.00;7.67;;;9.10;99.90;;;;;;5033022;28;20248;-63
2021/10/14 00:35:33;;;;;;;8.23;6.93;;;9.10;99.90;;;;;;5032979;28;20536;-63
2021/10/14 00:37:58;;;;;;;8.07;7.27;;;9.10;99.90;;;;;;5032515;28;20203;-63
2021/10/14 00:40:24;;;;;;;10.27;7.50;;;9.10;99.90;;;;;;5032616;28;20181;-63
2021/10/14 00:42:50;;;;;;;8.10;7.17;;;9.00;99.90;;;;;;5032852;28;20165;-63
2021/10/14 00:45:15;;;;;;;10.20;7.87;;;9.00;99.90;;;;;;5032782;28;20188;-63
2021/10/14 00:47:41;;;;;;;9.50;7.40;;;9.00;99.90;;;;;;5032761;28;20513;-63
2021/10/14 00:50:08;;;;;;;11.73;7.70;;;9.00;99.90;;;;;;5032046;28;20676;-63
2021/10/14 00:52:36;;;;;;;12.43;9.63;;;9.10;99.90;;;;;;5032829;28;20582;-63
2021/10/14 00:55:03;;;;;;;15.30;10.20;;;9.10;99.90;;;;;;5032751;28;20414;-63
2021/10/14 00:57:29;;;;;;;12.27;11.07;;;9.00;99.90;;;;;;5032645;28;20737;-63
2021/10/14 00:59:55;;;;;;;8.43;7.27;;;9.00;99.90;;;;;;5032082;28;20455;-63
2021/10/14 01:02:21;;;;;;;14.53;7.97;;;9.00;99.90;;;;;;5032548;28;20395;-63
2021/10/14 01:04:47;;;;;;;8.50;6.93;;;9.00;99.90;;;;;;5032352;28;20415;-63
2021/10/14 01:07:12;;;;;;;8.90;7.90;;;9.10;99.90;;;;;;5030528;28;20395;-63
2021/10/14 01:09:40;;;;;;;11.37;8.17;;;9.00;99.90;;;;;;5030490;28;20279;-63
2021/10/14 01:12:06;;;;;;;7.73;6.90;;;9.00;99.90;;;;;;5032066;28;20672;-63
2021/10/14 01:14:33;;;;;;;9.93;6.80;;;9.10;99.90;;;;;;5031874;28;20419;-63
2021/10/14 01:16:59;;;;;;;8.30;7.30;;;9.10;99.90;;;;;;5031981;28;20541;-63
2021/10/14 01:19:25;;;;;;;13.40;7.60;;;9.10;99.90;;;;;;5031776;28;20765;-63
2021/10/14 01:21:51;;;;;;;11.43;8.00;;;9.10;99.90;;;;;;5032088;28;20554;-63
2021/10/14 01:24:18;;;;;;;14.03;8.33;;;9.10;99.90;;;;;;5032126;28;20169;-64
2021/10/14 01:26:43;;;;;;;10.03;7.00;;;9.20;99.90;;;;;;5032220;28;20482;-63
2021/10/14 01:29:09;;;;;;;9.17;7.00;;;9.20;99.90;;;;;;5031610;28;20526;-63
2021/10/14 01:31:35;;;;;;;7.43;6.63;;;9.10;99.90;;;;;;5031864;28;20176;-63
2021/10/14 01:34:01;;;;;;;8.73;7.83;;;9.20;99.90;;;;;;5031966;28;20892;-63
2021/10/14 01:36:27;;;;;;;9.23;8.40;;;9.20;99.90;;;;;;5031980;28;20172;-63
2021/10/14 01:38:52;;;;;;;12.77;7.73;;;9.20;99.90;;;;;;5031444;28;20442;-63
2021/10/14 01:41:18;;;;;;;8.70;7.80;;;9.20;99.90;;;;;;5031846;28;20172;-63
2021/10/14 01:43:44;;;;;;;9.07;7.40;;;9.20;99.90;;;;;;5031858;28;20165;-63
2021/10/14 01:46:10;;;;;;;10.67;8.37;;;9.20;99.90;;;;;;5031817;28;20172;-63
2021/10/14 01:48:36;;;;;;;8.73;6.83;;;9.20;99.90;;;;;;5031454;28;20177;-63
2021/10/14 01:51:03;;;;;;;11.90;9.30;;;9.20;99.90;;;;;;5031539;28;20871;-63
2021/10/14 01:53:29;;;;;;;11.50;6.73;;;9.20;99.90;;;;;;5031778;28;20169;-63
2021/10/14 01:55:55;;;;;;;14.87;7.37;;;9.30;99.90;;;;;;5031705;28;20417;-63
2021/10/14 01:58:21;;;;;;;10.23;6.00;;;9.20;99.90;;;;;;5031292;28;20653;-63
2021/10/14 02:00:48;;;;;;;11.30;6.57;;;9.20;99.90;;;;;;5031495;28;20430;-63
2021/10/14 02:03:14;;;;;;;6.80;6.20;;;9.20;99.90;;;;;;5031613;28;20392;-63
2021/10/14 02:05:39;;;;;;;8.60;6.77;;;9.20;99.90;;;;;;5031593;28;20411;-63
2021/10/14 02:08:05;;;;;;;9.17;7.47;;;9.20;99.90;;;;;;5031335;28;20235;-63
2021/10/14 02:10:31;;;;;;;7.33;6.50;;;9.10;99.90;;;;;;5031454;28;20567;-63
2021/10/14 02:12:57;;;;;;;9.50;6.13;;;9.20;99.90;;;;;;5031605;28;20204;-64
2021/10/14 02:15:23;;;;;;;8.50;6.60;;;9.20;99.90;;;;;;5031456;28;21015;-63
2021/10/14 02:17:49;;;;;;;8.23;5.43;;;9.20;99.90;;;;;;5031384;28;20399;-63
2021/10/14 02:20:15;;;;;;;6.33;5.73;;;9.20;99.90;;;;;;5031036;28;20192;-63
2021/10/14 02:22:40;;;;;;;7.00;6.30;;;9.20;99.90;;;;;;5031463;28;20407;-63
2021/10/14 02:25:09;;;;;;;7.53;6.33;;;9.30;99.90;;;;;;5032195;28;20411;-63
2021/10/14 02:27:35;;;;;;;7.87;6.07;;;9.30;99.90;;;;;;5035332;28;20188;-63
2021/10/14 02:30:01;;;;;;;11.27;6.30;;;9.30;99.90;;;;;;5034782;28;20458;-63
2021/10/14 02:32:28;;;;;;;7.40;5.80;;;9.30;99.90;;;;;;5035329;28;20891;-63
2021/10/14 02:34:55;;;;;;;7.53;5.90;;;9.30;99.90;;;;;;5035144;28;20415;-63
2021/10/14 02:37:21;;;;;;;7.90;5.93;;;9.30;99.90;;;;;;5035292;28;20442;-63
2021/10/14 02:39:46;;;;;;;6.67;5.60;;;9.30;99.90;;;;;;5035013;28;20877;-63
2021/10/14 02:42:12;;;;;;;7.17;5.30;;;9.30;99.90;;;;;;5035193;28;20199;-64
2021/10/14 02:44:37;;;;;;;6.30;5.70;;;9.20;99.90;;;;;;5035452;28;20251;-63
2021/10/14 02:47:03;;;;;;;6.87;5.80;;;9.20;99.90;;;;;;5034997;28;20173;-63
2021/10/14 02:49:29;;;;;;;8.60;5.80;;;9.20;99.90;;;;;;5034473;28;20212;-64
2021/10/14 02:51:55;;;;;;;5.20;4.80;;;9.20;99.90;;;;;;5034989;28;20174;-63
2021/10/14 02:54:20;;;;;;;7.90;5.27;;;9.20;99.90;;;;;;5034920;28;20419;-63
2021/10/14 02:56:46;;;;;;;7.33;6.10;;;9.30;99.90;;;;;;5034827;28;20169;-63
2021/10/14 02:59:11;;;;;;;8.67;5.87;;;9.30;99.90;;;;;;5034137;28;20720;-63
2021/10/14 03:01:38;;;;;;;6.27;5.47;;;9.30;99.90;;;;;;5034691;28;20168;-63
2021/10/14 03:04:04;;;;;;;9.87;5.20;;;9.40;99.90;;;;;;5034626;28;20172;-63
2021/10/14 03:06:29;;;;;;;6.83;5.57;;;9.30;99.90;;;;;;5034651;28;20407;-63
2021/10/14 03:08:55;;;;;;;8.30;5.77;;;9.30;99.90;;;;;;5034135;28;20597;-63
2021/10/14 03:11:20;;;;;;;7.33;5.17;;;9.30;99.90;;;;;;5034581;28;20181;-63
2021/10/14 03:13:46;;;;;;;8.37;5.00;;;9.30;99.90;;;;;;5034905;28;20203;-64
2021/10/14 03:16:12;;;;;;;5.37;4.53;;;9.30;99.90;;;;;;5034671;28;20616;-63
2021/10/14 03:18:37;;;;;;;13.40;6.90;;;9.30;99.90;;;;;;5034133;28;20200;-63
2021/10/14 03:21:03;;;;;;;6.53;5.60;;;9.30;99.90;;;;;;5034320;28;20534;-64
2021/10/14 03:23:28;;;;;;;8.30;5.40;;;9.30;99.90;;;;;;5034333;28;20246;-63
2021/10/14 03:25:54;;;;;;;5.27;4.77;;;9.30;99.90;;;;;;5034338;28;20165;-63
2021/10/14 03:28:19;;;;;;;5.70;5.20;;;9.30;99.90;;;;;;5033821;28;20234;-63
2021/10/14 03:30:45;;;;;;;7.17;5.13;;;9.20;99.90;;;;;;5034020;28;20665;-63
2021/10/14 03:33:11;;;;;;;9.33;5.30;;;9.30;99.90;;;;;;5034170;28;20641;-64
2021/10/14 03:35:36;;;;;;;7.90;5.30;;;9.30;99.90;;;;;;5034120;28;20609;-64
2021/10/14 03:38:02;;;;;;;10.40;6.03;;;9.30;99.90;;;;;;5032468;28;20207;-63
2021/10/14 03:40:28;;;;;;;12.53;5.17;;;9.30;99.90;;;;;;5033935;28;20307;-63
2021/10/14 03:42:54;;;;;;;6.77;5.30;;;9.30;99.90;;;;;;5033968;28;20664;-63
2021/10/14 03:45:20;;;;;;;10.70;8.17;;;9.20;99.90;;;;;;5033938;28;20404;-63
2021/10/14 03:47:45;;;;;;;11.33;5.63;;;9.20;99.90;;;;;;5033923;28;20223;-64
2021/10/14 03:50:11;;;;;;;6.30;5.70;;;9.20;99.90;;;;;;5033375;28;20546;-63
2021/10/14 03:52:37;;;;;;;7.53;6.73;;;9.20;99.90;;;;;;5033812;28;20175;-63
2021/10/14 03:55:03;;;;;;;10.87;8.73;;;9.20;99.90;;;;;;5033931;28;20565;-63
2021/10/14 03:57:28;;;;;;;9.23;5.77;;;9.30;99.90;;;;;;5033795;28;20418;-64
2021/10/14 03:59:54;;;;;;;7.70;7.00;;;9.30;99.90;;;;;;5033132;28;20626;-64
2021/10/14 04:02:19;;;;;;;8.60;5.70;;;9.30;99.90;;;;;;5033606;28;20200;-63
2021/10/14 04:04:45;;;;;;;6.53;5.87;;;9.30;99.90;;;;;;5033649;28;20173;-64
2021/10/14 04:07:11;;;;;;;8.23;4.37;;;9.40;99.90;;;;;;5015677;28;20179;-63
2021/10/14 04:09:36;;;;;;;4.60;3.43;;;9.30;99.90;;;;;;5033010;28;20197;-63
2021/10/14 04:12:02;;;;;;;7.70;5.40;;;9.20;99.90;;;;;;5033855;28;20179;-64
2021/10/14 04:14:29;;;;;;;8.57;5.93;;;9.30;99.90;;;;;;5033439;28;20250;-63
2021/10/14 04:16:54;;;;;;;5.00;4.30;;;9.30;99.90;;;;;;5033379;28;20169;-64
2021/10/14 04:19:20;;;;;;;4.27;3.87;;;9.20;99.90;;;;;;5032788;28;20463;-64
2021/10/14 04:21:47;;;;;;;6.20;3.90;;;9.20;99.90;;;;;;5033206;28;20177;-64
2021/10/14 04:24:12;;;;;;;6.73;4.40;;;9.10;99.90;;;;;;5039586;28;20203;-66
2021/10/14 04:26:38;;;;;;;6.33;4.40;;;9.10;99.90;;;;;;5042002;28;20498;-64
2021/10/14 04:29:03;;;;;;;8.40;5.60;;;9.20;99.90;;;;;;5041127;28;20546;-64
2021/10/14 04:31:29;;;;;;;6.50;4.87;;;9.10;99.90;;;;;;5040523;28;20196;-64
2021/10/14 04:33:55;;;;;;;6.90;5.23;;;9.10;99.90;;;;;;5040421;28;20558;-65
2021/10/14 04:36:20;;;;;;;5.87;5.30;;;9.10;99.90;;;;;;5038679;28;20207;-65
2021/10/14 04:38:46;;;;;;;5.50;5.07;;;9.10;99.90;;;;;;5039222;28;20451;-65
2021/10/14 04:41:12;;;;;;;6.03;3.77;;;9.10;99.90;;;;;;5039956;28;20188;-64
2021/10/14 04:43:37;;;;;;;6.20;4.40;;;9.10;99.90;;;;;;5040307;28;20633;-65
2021/10/14 04:46:03;;;;;;;6.63;4.37;;;9.10;99.90;;;;;;5040910;28;20180;-65
2021/10/14 04:48:29;;;;;;;7.60;5.30;;;9.10;99.90;;;;;;5039262;28;20187;-65
2021/10/14 04:50:54;;;;;;;3.80;3.53;;;9.10;99.90;;;;;;5039363;28;20230;-65
2021/10/14 04:53:20;;;;;;;4.00;3.53;;;9.00;99.90;;;;;;5040544;28;20203;-65
2021/10/14 04:55:45;;;;;;;5.77;4.30;;;9.00;99.90;;;;;;5039676;28;20173;-64
2021/10/14 04:58:11;;;;;;;4.33;3.93;;;9.00;99.90;;;;;;5038803;28;20557;-65
2021/10/14 05:00:36;;;;;;;10.10;5.30;;;9.00;99.90;;;;;;5038602;28;20192;-64
2021/10/14 05:03:02;;;;;;;7.07;4.30;;;9.00;99.90;;;;;;5038464;28;20169;-65
2021/10/14 05:05:28;;;;;;;6.37;3.70;;;9.00;99.90;;;;;;5039126;28;20356;-66
2021/10/14 05:07:54;;;;;;;6.70;4.00;;;8.90;99.90;;;;;;5037858;28;20423;-65
2021/10/14 05:10:19;;;;;;;4.20;3.90;;;9.00;99.90;;;;;;5019740;28;20188;-64
2021/10/14 05:12:45;;;;;;;7.67;3.30;;;8.90;99.90;;;;;;5037922;28;20242;-65
2021/10/14 05:15:11;;;;;;;8.03;3.20;;;8.90;99.90;;;;;;5037802;28;20570;-65
2021/10/14 05:17:37;;;;;;;3.50;3.20;;;8.90;99.90;;;;;;5037949;28;20515;-65
2021/10/14 05:20:04;;;;;;;4.93;3.83;;;8.90;99.90;;;;;;5037927;28;20463;-65
2021/10/14 05:22:30;;;;;;;4.80;4.30;;;8.80;99.90;;;;;;5038269;28;20175;-65
2021/10/14 05:24:56;;;;;;;21.80;4.30;;;8.80;99.90;;;;;;5037772;28;20408;-64
2021/10/14 05:27:22;;;;;;;4.80;4.07;;;8.80;99.90;;;;;;5036878;28;20412;-64
2021/10/14 05:29:47;;;;;;;4.20;3.27;;;8.80;99.90;;;;;;5036332;28;20281;-63
2021/10/14 05:32:13;;;;;;;8.37;3.70;;;8.80;99.90;;;;;;5035732;28;20230;-65
2021/10/14 05:34:39;;;;;;;8.50;4.33;;;8.70;99.90;;;;;;5036362;28;20180;-65
2021/10/14 05:37:04;;;;;;;5.00;3.80;;;8.80;99.90;;;;;;5036298;28;20439;-66
2021/10/14 05:39:30;;;;;;;5.20;3.60;;;8.80;99.90;;;;;;5035721;28;20285;-65
2021/10/14 05:41:56;;;;;;;5.43;3.30;;;8.70;99.90;;;;;;5036048;28;20242;-64
2021/10/14 05:44:21;;;;;;;3.80;3.50;;;8.70;99.90;;;;;;5035897;28;20203;-65
2021/10/14 05:46:48;;;;;;;6.80;4.10;;;8.70;99.90;;;;;;5035780;28;20175;-65
2021/10/14 05:49:13;;;;;;;3.40;3.10;;;8.60;99.90;;;;;;5035811;28;20203;-65
2021/10/14 05:51:39;;;;;;;6.00;3.20;;;8.70;99.90;;;;;;5035845;28;20880;-65
2021/10/14 05:54:05;;;;;;;3.93;3.17;;;8.70;99.90;;;;;;5036964;28;20665;-65
2021/10/14 05:56:30;;;;;;;4.40;4.00;;;8.60;99.90;;;;;;5019612;28;20435;-65
2021/10/14 05:58:56;;;;;;;4.80;3.23;;;8.60;99.90;;;;;;5035617;28;20204;-65
2021/10/14 06:01:22;;;;;;;5.83;3.97;;;8.70;99.90;;;;;;5039307;28;20195;-65
2021/10/14 06:03:47;;;;;;;4.40;4.00;;;8.60;99.90;;;;;;5040976;28;20621;-65
2021/10/14 06:06:13;;;;;;;4.60;4.20;;;8.60;99.90;;;;;;5040311;28;20160;-65
2021/10/14 06:08:39;;;;;;;5.70;3.83;;;8.60;99.90;;;;;;5028986;28;20240;-64
2021/10/14 06:11:04;;;;;;;4.40;3.97;;;8.60;99.90;;;;;;5044984;28;20188;-65
2021/10/14 06:13:30;;;;;;;6.87;4.57;;;8.60;99.90;;;;;;5040736;28;20192;-64
2021/10/14 06:15:56;;;;;;;6.07;3.40;;;8.60;99.90;;;;;;5041028;28;20168;-65
2021/10/14 06:18:22;;;;;;;4.27;3.57;;;8.60;99.90;;;;;;5040435;28;20205;-65
2021/10/14 06:20:48;;;;;;;4.93;4.30;;;8.60;99.90;;;;;;5028451;28;20288;-65
2021/10/14 06:23:14;;;;;;;8.23;5.40;;;8.50;99.90;;;;;;5046068;28;20888;-64
2021/10/14 06:25:39;;;;;;;3.83;3.53;;;8.50;99.90;;;;;;5045036;28;20185;-64
2021/10/14 06:28:05;;;;;;;5.50;4.90;;;8.50;99.90;;;;;;5045098;28;20256;-65
2021/10/14 06:30:32;;;;;;;9.13;5.17;;;8.60;99.90;;;;;;5045807;28;20203;-65
2021/10/14 06:32:58;;;;;;;6.57;5.13;;;8.50;99.90;;;;;;5045745;28;20888;-64
2021/10/14 06:35:25;;;;;;;10.20;6.43;;;8.50;99.90;;;;;;5044472;28;20407;-65
2021/10/14 06:37:50;;;;;;;18.90;15.50;;;8.60;99.90;;;;;;5025849;28;20872;-65
2021/10/14 06:40:17;;;;;;;8.93;4.77;;;8.60;99.90;;;;;;5042686;28;20443;-64
2021/10/14 06:42:42;;;;;;;12.60;9.00;;;8.60;99.90;;;;;;5043578;28;20221;-64
2021/10/14 06:45:09;;;;;;;5.43;4.93;;;8.60;99.90;;;;;;5044927;28;20876;-64
2021/10/14 06:47:35;;;;;;;3.83;3.47;;;8.60;99.90;;;;;;5050590;28;20175;-63
2021/10/14 06:50:01;;;;;;;6.90;6.37;;;8.60;99.90;;;;;;5050909;28;20446;-64
2021/10/14 06:52:27;;;;;;;3.80;3.50;;;8.60;99.90;;;;;;5050841;28;20981;-64
2021/10/14 06:54:52;;;;;;;7.10;4.70;;;8.70;99.90;;;;;;5051605;28;20408;-64
2021/10/14 06:57:18;;;;;;;6.50;5.20;;;8.70;99.90;;;;;;5051827;28;20177;-66
2021/10/14 06:59:44;;;;;;;8.47;5.60;;;8.70;99.90;;;;;;5051805;28;20228;-65
2021/10/14 07:02:09;;;;;;;4.57;3.80;;;9.20;99.90;;;;;;5052838;28;20172;-65
2021/10/14 07:04:35;;;;;;;5.70;3.90;;;8.70;99.90;;;;;;5052135;28;20227;-64
2021/10/14 07:07:00;;;;;;;5.50;4.20;;;10.10;99.90;;;;;;5052527;28;20173;-65
2021/10/14 07:09:26;;;;;;;6.83;4.70;;;8.70;99.90;;;;;;5051783;28;20633;-64
2021/10/14 07:11:55;;;;;;;6.10;5.30;;;8.90;99.90;;;;;;5034705;28;20235;-65
2021/10/14 07:14:20;;;;;;;5.07;4.67;;;8.90;99.90;;;;;;5051933;28;20601;-65
2021/10/14 07:16:47;;;;;;;9.13;4.53;;;8.90;99.90;;;;;;5052443;28;20422;-65
2021/10/14 07:19:12;;;;;;;11.20;7.00;;;8.90;99.90;;;;;;5051451;28;20263;-65
2021/10/14 07:21:38;;;;;;;6.23;5.47;;;8.90;99.90;;;;;;5051489;28;20415;-63
2021/10/14 07:24:04;;;;;;;6.70;5.53;;;8.90;99.90;;;;;;5034436;28;20164;-63
2021/10/14 07:26:29;;;;;;;6.33;5.73;;;8.90;99.90;;;;;;5051563;28;20173;-64
2021/10/14 07:28:57;;;;;;;6.23;5.70;;;8.90;99.90;;;;;;5033456;28;20414;-64
2021/10/14 07:31:22;;;;;;;7.23;5.67;;;8.90;99.90;;;;;;5051981;28;20172;-65
2021/10/14 07:33:48;;;;;;;7.83;6.00;;;9.00;99.90;;;;;;5032778;28;20471;-65
2021/10/14 07:36:14;;;;;;;9.03;5.53;;;9.00;99.90;;;;;;5051267;28;20415;-64
2021/10/14 07:38:39;;;;;;;7.40;6.70;;;9.80;99.90;;;;;;5051679;28;20207;-65
2021/10/14 07:41:05;;;;;;;8.90;7.13;;;9.00;99.90;;;;;;5051325;28;20201;-65
2021/10/14 07:43:31;;;;;;;7.13;6.43;;;10.40;99.90;;;;;;5052070;28;20621;-64
2021/10/14 07:45:56;;;;;;;7.70;6.30;;;9.10;99.90;;;;;;5033707;28;20622;-64
2021/10/14 07:48:22;;;;;;;7.63;6.90;;;9.00;99.90;;;;;;5051319;28;20172;-65
2021/10/14 07:50:47;;;;;;;9.30;7.60;;;10.00;99.90;;;;;;5051104;28;20204;-65
2021/10/14 07:53:15;;;;;;;8.77;7.50;;;9.00;99.90;;;;;;5052172;28;20802;-64
2021/10/14 07:55:41;;;;;;;10.80;7.90;;;8.90;99.90;;;;;;5051730;28;20649;-64
2021/10/14 07:58:08;;;;;;;9.37;6.87;;;9.10;99.90;;;;;;5033672;28;20502;-65
2021/10/14 08:00:34;;;;;;;9.63;8.63;;;9.20;99.90;;;;;;5034211;28;20431;-65
2021/10/14 08:02:59;;;;;;;10.20;7.57;;;9.20;99.90;;;;;;5051815;28;20418;-63
2021/10/14 08:05:25;;;;;;;8.60;6.70;;;9.10;99.90;;;;;;5033462;28;20439;-64
2021/10/14 08:07:51;;;;;;;8.13;7.27;;;9.20;99.90;;;;;;5050658;28;20179;-66
2021/10/14 08:10:16;;;;;;;9.70;6.33;;;10.70;99.90;;;;;;5050320;28;20205;-65
2021/10/14 08:12:43;;;;;;;7.90;7.13;;;10.30;99.90;;;;;;5028050;28;20199;-64
2021/10/14 08:15:09;;;;;;;11.03;8.60;;;9.30;99.90;;;;;;5042697;28;20218;-65
2021/10/14 08:17:36;;;;;;;8.33;7.50;;;9.30;99.90;;;;;;5047650;28;20414;-64
2021/10/14 08:20:03;;;;;;;10.13;9.13;;;9.30;99.90;;;;;;5034470;28;20463;-63
2021/10/14 08:22:29;;;;;;;10.20;8.00;;;9.40;99.90;;;;;;5050965;28;20423;-65
2021/10/14 08:24:58;;;;;;;11.63;8.50;;;9.40;99.90;;;;;;5030622;28;20502;-65
2021/10/14 08:27:23;;;;;;;11.30;9.10;;;9.40;99.90;;;;;;5048071;28;20545;-65
2021/10/14 08:29:49;;;;;;;9.73;8.37;;;9.50;99.90;;;;;;5048027;28;20466;-65
2021/10/14 08:32:14;;;;;;;12.47;8.97;;;9.50;99.90;;;;;;5052798;28;20267;-65
2021/10/14 08:34:40;;;;;;;13.80;9.57;;;9.50;99.90;;;;;;5031025;28;20622;-65
2021/10/14 08:37:06;;;;;;;12.60;9.53;;;9.80;99.90;;;;;;5030144;28;20181;-63
2021/10/14 08:39:31;;;;;;;16.77;11.27;;;9.60;99.90;;;;;;5051584;28;20208;-64
2021/10/14 08:41:57;;;;;;;12.30;8.20;;;9.70;99.90;;;;;;5049800;28;20172;-65
2021/10/14 08:44:26;;;;;;;16.90;8.40;;;9.70;99.90;;;;;;5047972;28;20256;-65
2021/10/14 08:46:56;;;;;;;9.43;7.97;;;9.80;99.90;;;;;;5046407;28;20259;-65
2021/10/14 08:49:23;;;;;;;13.10;11.27;;;9.90;99.90;;;;;;5044676;28;20458;-66
2021/10/14 08:51:50;;;;;;;9.00;8.10;;;9.90;99.90;;;;;;5043212;28;20807;-66
2021/10/14 08:54:15;;;;;;;10.77;8.50;;;10.00;99.90;;;;;;5048993;28;20415;-64
2021/10/14 08:56:47;;;;;;;11.23;7.93;;;10.40;99.90;;;;;;5033614;28;20431;-66
2021/10/14 08:59:16;;;;;;;9.90;7.87;;;10.10;99.90;;;;;;5047887;28;20203;-63
2021/10/14 09:01:42;;;;;;;11.00;8.40;;;10.20;99.90;;;;;;5030603;28;20411;-64
2021/10/14 09:04:14;;;;;;;10.93;8.50;;;10.20;99.90;;;;;;5050160;28;20498;-63
2021/10/14 09:06:41;;;;;;;9.70;8.70;;;10.40;99.90;;;;;;5051141;28;20487;-63
2021/10/14 09:09:07;;;;;;;9.30;7.90;;;10.50;99.90;;;;;;5049742;28;20410;-65
2021/10/14 09:11:33;;;;;;;11.23;8.57;;;10.50;99.90;;;;;;5032068;28;20426;-63
2021/10/14 09:14:07;;;;;;;38.00;20.97;;;11.20;99.90;;;;;;5052497;28;20183;-65
2021/10/14 09:16:34;;;;;;;12.83;9.90;;;11.50;99.90;;;;;;5051415;28;20172;-65
2021/10/14 09:19:21;;;;;;;16.87;11.00;;;11.10;99.90;;;;;;5035238;28;20473;-61
2021/10/14 09:22:01;;;;;;;11.53;10.03;;;11.20;99.90;;;;;;5036219;28;20487;-64
2021/10/14 09:24:27;;;;;;;11.90;9.83;;;11.30;99.90;;;;;;5053356;28;20418;-61
2021/10/14 09:26:54;;;;;;;10.10;8.53;;;11.20;99.90;;;;;;5053679;28;20572;-64
2021/10/14 09:29:21;;;;;;;8.20;7.00;;;13.00;99.90;;;;;;5051994;28;20187;-63
2021/10/14 09:32:14;;;;;;;6.57;5.97;;;11.40;99.90;;;;;;5052019;28;20924;-64
2021/10/14 09:34:44;;;;;;;10.93;9.00;;;11.30;99.90;;;;;;5051994;28;20486;-62
2021/10/14 09:37:16;;;;;;;8.50;6.63;;;11.50;99.90;;;;;;5051299;28;20404;-64
2021/10/14 09:40:00;;;;;;;14.53;13.17;;;11.40;99.90;;;;;;5051626;28;20454;-62
2021/10/14 09:42:57;;;;;;;8.23;6.90;;;11.50;99.90;;;;;;5051497;28;20561;-63
2021/10/14 09:45:31;;;;;;;9.30;7.10;;;11.60;99.90;;;;;;5051002;28;20407;-64
2021/10/14 09:48:08;;;;;;;12.77;7.60;;;11.60;99.90;;;;;;5032163;28;20442;-64
2021/10/14 09:50:42;;;;;;;11.40;8.27;;;11.70;99.90;;;;;;5048737;28;20445;-63
2021/10/14 09:53:14;;;;;;;9.10;7.23;;;11.90;99.90;;;;;;5051565;28;20395;-62
2021/10/14 09:55:41;;;;;;;8.13;7.10;;;11.70;99.90;;;;;;5033523;28;20407;-65
2021/10/14 09:58:07;;;;;;;10.50;6.87;;;12.10;99.90;;;;;;5031049;28;20411;-63
2021/10/14 10:00:33;;;;;;;7.07;6.13;;;12.20;99.90;;;;;;5047960;28;20470;-64
2021/10/14 10:03:04;;;;;;;6.00;4.77;;;12.20;99.90;;;;;;5046961;28;20164;-63
2021/10/14 10:05:30;;;;;;;7.80;5.50;;;12.30;99.90;;;;;;5029962;28;20419;-65
2021/10/14 10:08:00;;;;;;;8.10;5.40;;;12.40;99.90;;;;;;5046971;28;20403;-65
2021/10/14 10:10:27;;;;;;;5.77;5.07;;;13.50;99.90;;;;;;5044229;28;20770;-65
2021/10/14 10:12:56;;;;;;;7.13;5.73;;;13.80;99.90;;;;;;5045391;28;20403;-65
2021/10/14 10:15:44;;;;;;;6.97;5.47;;;13.00;99.90;;;;;;5044359;28;20400;-65
2021/10/14 10:18:27;;;;;;;6.10;5.50;;;13.60;99.90;;;;;;5044661;28;20400;-64
2021/10/14 10:21:06;;;;;;;5.13;4.70;;;13.90;99.90;;;;;;5043461;28;20490;-64
2021/10/14 10:23:45;;;;;;;5.57;4.90;;;14.40;99.90;;;;;;5036860;28;20399;-63
2021/10/14 10:26:32;;;;;;;5.60;5.10;;;14.90;99.90;;;;;;5031414;28;20407;-65
2021/10/14 10:28:58;;;;;;;5.30;3.50;;;15.20;99.90;;;;;;5030996;28;20486;-63
2021/10/14 10:31:24;;;;;;;5.20;4.20;;;15.20;99.90;;;;;;5031363;28;20779;-63
2021/10/14 10:33:58;;;;;;;4.37;4.07;;;15.40;99.90;;;;;;5031421;28;20402;-64
2021/10/14 10:36:51;;;;;;;4.63;4.17;;;15.60;99.90;;;;;;5031357;28;20177;-64
2021/10/14 10:39:55;;;;;;;5.50;5.00;;;15.80;99.40;;;;;;5030861;28;20451;-64
2021/10/14 10:42:38;;;;;;;4.13;3.77;;;16.10;98.60;;;;;;5031336;28;20399;-64
2021/10/14 10:45:14;;;;;;;6.87;5.17;;;16.10;97.50;;;;;;5031455;28;20395;-64
2021/10/14 10:47:53;;;;;;;3.80;3.40;;;16.30;97.90;;;;;;5034336;28;20399;-64
2021/10/14 10:50:23;;;;;;;6.07;3.70;;;16.80;98.30;;;;;;5034447;28;20442;-64
2021/10/14 10:53:13;;;;;;;6.63;3.00;;;17.40;99.20;;;;;;5034831;28;20406;-64
2021/10/14 10:55:42;;;;;;;5.77;3.00;;;17.30;95.70;;;;;;5034906;28;20395;-64
2021/10/14 10:58:10;;;;;;;3.10;2.90;;;17.10;94.90;;;;;;5034482;28;20399;-64
2021/10/14 11:00:39;;;;;;;4.03;3.73;;;17.60;97.80;;;;;;5034588;28;20411;-64
2021/10/14 11:03:07;;;;;;;3.70;3.17;;;18.50;97.50;;;;;;5034791;28;20426;-64
2021/10/14 11:05:44;;;;;;;3.80;3.40;;;19.10;98.80;;;;;;5034683;28;20403;-64
2021/10/14 11:08:12;;;;;;;4.67;4.27;;;19.90;94.10;;;;;;5034362;28;20436;-65
2021/10/14 11:10:38;;;;;;;3.50;3.30;;;20.10;93.10;;;;;;5034455;28;20455;-65
2021/10/14 11:13:03;;;;;;;4.10;2.70;;;20.10;92.70;;;;;;5034383;28;20457;-64
2021/10/14 11:15:30;;;;;;;3.20;2.63;;;20.00;92.70;;;;;;5034725;28;20164;-64
2021/10/14 11:18:07;;;;;;;4.90;2.90;;;19.90;92.20;;;;;;5034281;28;20176;-65
2021/10/14 11:20:34;;;;;;;4.37;2.70;;;19.90;92.10;;;;;;5034590;28;20430;-65
2021/10/14 11:23:07;;;;;;;3.57;2.90;;;19.70;92.60;;;;;;5034369;28;20411;-64
2021/10/14 11:25:35;;;;;;;2.90;2.70;;;19.60;91.30;;;;;;5034231;28;20434;-64
2021/10/14 11:28:05;;;;;;;2.50;2.30;;;19.40;91.50;;;;;;5033924;28;20916;-65
2021/10/14 11:30:38;;;;;;;4.40;2.80;;;19.20;92.20;;;;;;5034051;28;20422;-65
2021/10/14 11:33:10;;;;;;;2.50;2.40;;;19.00;92.20;;;;;;5034212;28;20400;-64
2021/10/14 11:35:37;;;;;;;4.00;3.20;;;18.90;92.70;;;;;;5034221;28;20414;-64
2021/10/14 11:38:15;;;;;;;3.03;2.83;;;18.60;92.60;;;;;;5033550;28;20950;-64
2021/10/14 11:40:40;;;;;;;3.37;3.17;;;18.50;93.40;;;;;;5033985;28;20416;-64
2021/10/14 11:43:07;;;;;;;3.47;3.13;;;18.30;92.80;;;;;;5023848;28;20471;-64
2021/10/14 11:45:33;;;;;;;3.57;3.30;;;18.30;92.70;;;;;;5014156;28;20169;-64
2021/10/14 11:47:58;;;;;;;3.50;3.20;;;17.90;93.10;;;;;;5013763;28;20483;-64
2021/10/14 11:50:31;;;;;;;5.03;4.60;;;17.80;94.40;;;;;;5013674;28;20287;-65
2021/10/14 11:53:02;;;;;;;4.57;3.40;;;17.80;94.40;;;;;;5013988;28;20231;-64
2021/10/14 11:55:28;;;;;;;3.57;3.27;;;17.90;94.20;;;;;;5014204;28;20409;-65
2021/10/14 11:58:00;;;;;;;3.37;2.73;;;17.90;93.10;;;;;;5012700;28;20928;-65
2021/10/14 12:00:27;;;;;;;3.27;3.07;;;17.90;92.60;;;;;;5013822;28;20193;-64
2021/10/14 12:02:53;;;;;;;6.30;3.73;;;18.10;94.60;;;;;;5013759;28;20415;-64
2021/10/14 12:05:20;;;;;;;3.13;2.83;;;18.30;93.10;;;;;;5013889;28;20431;-64
2021/10/14 12:07:47;;;;;;;14.20;12.40;;;18.60;93.80;;;;;;5013518;28;20897;-65
2021/10/14 12:10:34;;;;;;;3.80;3.50;;;18.60;92.30;;;;;;5013565;28;20431;-65
2021/10/14 12:13:04;;;;;;;3.77;3.40;;;19.00;94.10;;;;;;5013709;28;20419;-64
2021/10/14 12:15:30;;;;;;;3.07;2.77;;;19.10;93.00;;;;;;5013587;28;20912;-65
2021/10/14 12:17:55;;;;;;;5.77;3.73;;;19.10;93.20;;;;;;5013328;28;20401;-65
2021/10/14 12:20:24;;;;;;;5.37;4.23;;;19.00;91.50;;;;;;5013473;28;20189;-64
2021/10/14 12:22:52;;;;;;;2.97;2.77;;;18.80;91.40;;;;;;5013566;28;20745;-64
2021/10/14 12:25:33;;;;;;;4.30;3.90;;;18.60;92.40;;;;;;5013421;28;20428;-64
2021/10/14 12:28:00;;;;;;;4.23;3.10;;;18.40;91.80;;;;;;5013270;28;20735;-68
2021/10/14 12:30:25;;;;;;;3.40;2.80;;;18.40;91.20;;;;;;5011742;28;20446;-64
2021/10/14 12:32:57;;;;;;;3.30;3.00;;;18.50;92.60;;;;;;5013354;28;20483;-64
2021/10/14 12:35:26;;;;;;;4.17;3.00;;;18.30;91.80;;;;;;5013267;28;20174;-65
2021/10/14 12:38:07;;;;;;;3.00;2.50;;;18.10;93.20;;;;;;5013114;28;20419;-64
2021/10/14 12:40:34;;;;;;;5.40;4.90;;;18.00;92.10;;;;;;5012954;28;20434;-65
2021/10/14 12:43:11;;;;;;;9.67;7.33;;;18.10;92.80;;;;;;5011927;28;20503;-65
2021/10/14 12:48:17;;;;;;;13.10;9.87;;;17.70;92.10;;;;;;5012891;28;20434;-66
2021/10/14 12:53:46;;;;;;;4.27;3.87;;;17.80;93.30;;;;;;5013193;28;20459;-65
2021/10/14 12:56:14;;;;;;;4.37;3.70;;;17.70;92.60;;;;;;5012924;28;20542;-65
2021/10/14 12:58:40;;;;;;;4.20;3.90;;;17.70;93.20;;;;;;5012451;28;20542;-67